Cleveland, Ohio
Traffic Map
Current Weather Conditions
Cleveland, Ohio
Clear
Clear
67°
Feels Like: 67°
Wind Chill: 67° Ceiling: Unl
Heat Index: 67° Visibility: 10mi
Dew Point: 59° Wind: 7mph
Humidity: 76% Direction: 10° (N)
Pressure: 29.76in Gusts: 0mph
Raw Report DataKBKL 281453Z 01006KT 10SM CLR 19/15 A2976 RMK AO2 SLP075 T01940150 56013
Traffic Incident Summary
Active as of:
Severity:
Category:
InformationThere was an issue retrieving the traffic information for this location. Please try a different location or try again shortly.
Advertisements
Track Severe Weather on mobile